Time,TemperatureF,DewpointF,PressureIn,WindDirection,WindDirectionDegrees,WindSpeedMPH,WindSpeedGustMPH,Humidity,HourlyPrecipIn,Conditions,Clouds,dailyrainin,SoftwareType,DateUTC
2013-09-29 00:04:00,37.2,27.6,0.00,East,87,42.0,-999.0,68,0.05,,,-99.99,,2013-09-29 08:04:00,
2013-09-29 00:09:00,37.3,27.9,0.00,SE,135,21.8,-999.0,68,0.00,,,-99.99,,2013-09-29 08:09:00,
2013-09-29 00:14:00,36.8,27.9,0.00,ENE,78,30.3,-999.0,70,0.00,,,-99.99,,2013-09-29 08:14:00,
2013-09-29 00:19:00,36.9,28.1,0.00,ESE,110,20.7,-999.0,70,0.00,,,-99.99,,2013-09-29 08:19:00,
2013-09-29 00:24:00,36.9,28.0,0.00,East,88,24.6,-999.0,69,0.00,,,-99.99,,2013-09-29 08:24:00,
2013-09-29 00:29:00,36.7,27.9,0.00,East,91,16.6,-999.0,70,0.00,,,-99.99,,2013-09-29 08:29:00,
2013-09-29 00:35:00,36.6,27.9,0.00,ESE,110,22.9,-999.0,70,0.00,,,-99.99,,2013-09-29 08:35:00,
2013-09-29 00:40:00,36.8,27.9,0.00,East,83,36.8,-999.0,69,0.00,,,-99.99,,2013-09-29 08:40:00,
2013-09-29 00:45:00,36.8,27.0,0.00,East,92,16.1,-999.0,67,0.00,,,-99.99,,2013-09-29 08:45:00,
2013-09-29 00:50:00,36.9,27.8,0.00,NE,55,26.6,-999.0,69,0.00,,,-99.99,,2013-09-29 08:50:00,
2013-09-29 00:55:00,36.5,27.3,0.00,ESE,103,41.2,-999.0,69,0.00,,,-99.99,,2013-09-29 08:55:00,
2013-09-29 01:00:00,36.4,27.6,0.00,East,92,45.3,-999.0,70,0.08,,,-99.99,,2013-09-29 09:00:00,
2013-09-29 01:05:00,36.4,27.2,0.00,East,84,30.0,-999.0,68,0.01,,,-99.99,,2013-09-29 09:05:00,
2013-09-29 01:10:00,36.3,26.9,0.00,East,90,15.5,-999.0,68,0.00,,,-99.99,,2013-09-29 09:10:00,
2013-09-29 01:15:00,36.6,26.2,0.00,East,84,38.1,-999.0,65,0.04,,,-99.99,,2013-09-29 09:15:00,
2013-09-29 01:20:00,36.7,26.6,0.00,ESE,114,20.6,-999.0,66,0.00,,,-99.99,,2013-09-29 09:20:00,
2013-09-29 01:25:00,36.9,25.7,0.00,ESE,111,26.6,-999.0,63,0.00,,,-99.99,,2013-09-29 09:25:00,
2013-09-29 01:30:00,37.3,25.6,0.00,ENE,66,34.8,-999.0,62,0.06,,,-99.99,,2013-09-29 09:30:00,
2013-09-29 01:35:00,36.6,25.8,0.00,ESE,104,38.5,-999.0,64,0.02,,,-99.99,,2013-09-29 09:35:00,
2013-09-29 01:40:00,36.2,26.5,0.00,ENE,73,35.4,-999.0,67,0.00,,,-99.99,,2013-09-29 09:40:00,
2013-09-29 01:45:00,36.4,26.9,0.00,ESE,110,27.4,-999.0,68,0.00,,,-99.99,,2013-09-29 09:45:00,
2013-09-29 01:50:00,36.4,26.4,0.00,East,86,29.4,-999.0,66,0.00,,,-99.99,,2013-09-29 09:50:00,
2013-09-29 01:55:00,36.7,26.3,0.00,East,94,39.5,-999.0,65,0.00,,,-99.99,,2013-09-29 09:55:00,
2013-09-29 02:00:00,36.2,26.6,0.00,ENE,76,37.2,-999.0,67,0.00,,,-99.99,,2013-09-29 10:00:00,
2013-09-29 02:05:00,36.1,26.7,0.00,ENE,78,32.5,-999.0,68,0.00,,,-99.99,,2013-09-29 10:05:00,
2013-09-29 02:10:00,36.5,26.6,0.00,East,79,33.6,-999.0,66,0.00,,,-99.99,,2013-09-29 10:10:00,
2013-09-29 02:15:00,36.1,26.6,0.00,ESE,115,20.5,-999.0,68,0.00,,,-99.99,,2013-09-29 10:15:00,
2013-09-29 02:20:00,36.4,26.4,0.00,East,79,35.3,-999.0,66,0.01,,,-99.99,,2013-09-29 10:20:00,
2013-09-29 02:25:00,36.2,26.2,0.00,ENE,72,34.1,-999.0,66,0.00,,,-99.99,,2013-09-29 10:25:00,
2013-09-29 02:30:00,35.8,26.7,0.00,ENE,69,27.4,-999.0,69,0.00,,,-99.99,,2013-09-29 10:30:00,
2013-09-29 02:35:00,35.9,26.3,0.00,ENE,68,30.1,-999.0,67,0.03,,,-99.99,,2013-09-29 10:35:00,
2013-09-29 02:40:00,36.0,26.1,0.00,ENE,64,44.3,-999.0,67,0.09,,,-99.99,,2013-09-29 10:40:00,
2013-09-29 02:45:00,35.7,26.4,0.00,East,84,38.1,-999.0,68,0.04,,,-99.99,,2013-09-29 10:45:00,
2013-09-29 02:50:00,36.1,25.9,0.00,ENE,65,24.1,-999.0,66,0.00,,,-99.99,,2013-09-29 10:50:00,
2013-09-29 02:55:00,36.2,24.8,0.00,East,91,31.7,-999.0,62,0.00,,,-99.99,,2013-09-29 10:55:00,
2013-09-29 03:00:00,36.3,25.0,0.00,ESE,116,34.2,-999.0,63,0.02,,,-99.99,,2013-09-29 11:00:00,
2013-09-29 03:05:00,36.0,25.9,0.00,East,94,20.2,-999.0,66,0.00,,,-99.99,,2013-09-29 11:05:00,
2013-09-29 03:10:00,35.5,25.8,0.00,East,98,25.7,-999.0,67,0.00,,,-99.99,,2013-09-29 11:10:00,
2013-09-29 03:15:00,35.4,25.7,0.00,SE,138,24.2,-999.0,67,0.00,,,-99.99,,2013-09-29 11:15:00,
2013-09-29 03:20:00,35.5,26.1,0.00,SE,126,44.2,-999.0,68,0.01,,,-99.99,,2013-09-29 11:20:00,
2013-09-29 03:25:00,35.3,26.3,0.00,East,85,33.1,-999.0,69,0.00,,,-99.99,,2013-09-29 11:25:00,
2013-09-29 03:30:00,34.9,26.0,0.00,East,93,35.6,-999.0,69,0.01,,,-99.99,,2013-09-29 11:30:00,
2013-09-29 03:35:00,35.3,26.2,0.00,ENE,77,40.2,-999.0,68,0.07,,,-99.99,,2013-09-29 11:35:00,
2013-09-29 03:40:00,35.2,26.1,0.00,East,89,44.0,-999.0,69,0.13,,,-99.99,,2013-09-29 11:40:00,
2013-09-29 03:45:00,35.2,26.2,0.00,ENE,70,44.4,-999.0,69,0.04,,,-99.99,,2013-09-29 11:45:00,
2013-09-29 03:50:00,35.1,26.6,0.00,East,89,36.0,-999.0,70,0.03,,,-99.99,,2013-09-29 11:50:00,
2013-09-29 03:55:00,35.4,25.8,0.00,East,79,50.9,-999.0,67,0.01,,,-99.99,,2013-09-29 11:55:00,
2013-09-29 04:00:00,35.5,26.5,0.00,East,95,21.4,-999.0,69,0.00,,,-99.99,,2013-09-29 12:00:00,
2013-09-29 04:05:00,35.4,26.3,0.00,East,88,25.6,-999.0,69,0.00,,,-99.99,,2013-09-29 12:05:00,
2013-09-29 04:10:00,35.1,26.0,0.00,East,84,35.7,-999.0,69,0.00,,,-99.99,,2013-09-29 12:10:00,
2013-09-29 04:15:00,35.5,25.7,0.00,ENE,70,31.6,-999.0,66,0.00,,,-99.99,,2013-09-29 12:15:00,
2013-09-29 04:20:00,35.1,25.9,0.00,East,89,39.7,-999.0,68,0.00,,,-99.99,,2013-09-29 12:20:00,
2013-09-29 04:25:00,35.2,26.0,0.00,ENE,66,25.0,-999.0,68,0.00,,,-99.99,,2013-09-29 12:25:00,
2013-09-29 04:30:00,35.1,25.4,0.00,East,80,51.3,-999.0,67,0.01,,,-99.99,,2013-09-29 12:30:00,
2013-09-29 04:35:00,35.1,25.7,0.00,East,96,39.3,-999.0,68,0.00,,,-99.99,,2013-09-29 12:35:00,
2013-09-29 04:40:00,34.9,25.1,0.00,East,79,56.0,-999.0,67,0.07,,,-99.99,,2013-09-29 12:40:00,
2013-09-29 04:45:00,34.8,25.2,0.00,ESE,105,21.4,-999.0,67,0.01,,,-99.99,,2013-09-29 12:45:00,
2013-09-29 04:50:00,35.2,24.3,0.00,ENE,69,39.9,-999.0,64,0.00,,,-99.99,,2013-09-29 12:50:00,
2013-09-29 04:55:00,35.2,24.2,0.00,ENE,73,45.2,-999.0,64,0.02,,,-99.99,,2013-09-29 12:55:00,
2013-09-29 05:00:00,35.0,24.4,0.00,East,86,41.2,-999.0,64,0.12,,,-99.99,,2013-09-29 13:00:00,
2013-09-29 05:05:00,35.2,24.2,0.00,ESE,105,26.6,-999.0,63,0.03,,,-99.99,,2013-09-29 13:05:00,
2013-09-29 05:10:00,35.2,23.4,0.00,East,86,37.9,-999.0,61,0.01,,,-99.99,,2013-09-29 13:10:00,
2013-09-29 05:15:00,35.1,23.5,0.00,East,85,52.7,-999.0,62,0.02,,,-99.99,,2013-09-29 13:15:00,
2013-09-29 05:20:00,35.2,23.8,0.00,East,83,20.1,-999.0,62,0.00,,,-99.99,,2013-09-29 13:20:00,
2013-09-29 05:25:00,35.3,23.3,0.00,East,88,41.7,-999.0,61,0.02,,,-99.99,,2013-09-29 13:25:00,
2013-09-29 05:30:00,35.0,23.2,0.00,ENE,72,45.2,-999.0,61,0.12,,,-99.99,,2013-09-29 13:30:00,
2013-09-29 05:35:00,35.1,23.1,0.00,East,89,17.0,-999.0,61,0.00,,,-99.99,,2013-09-29 13:35:00,
2013-09-29 05:40:00,35.5,22.9,0.00,ENE,77,48.0,-999.0,59,0.13,,,-99.99,,2013-09-29 13:40:00,
2013-09-29 05:45:00,35.3,22.6,0.00,NE,53,32.4,-999.0,59,0.04,,,-99.99,,2013-09-29 13:45:00,
2013-09-29 05:50:00,35.2,22.7,0.00,ESE,107,34.2,-999.0,59,0.00,,,-99.99,,2013-09-29 13:50:00,
2013-09-29 05:55:00,35.2,23.3,0.00,East,80,28.3,-999.0,61,0.00,,,-99.99,,2013-09-29 13:55:00,
2013-09-29 06:00:00,35.0,23.0,0.00,ENE,71,25.6,-999.0,61,0.00,,,-99.99,,2013-09-29 14:00:00,
2013-09-29 06:05:00,35.2,22.9,0.00,ENE,78,26.5,-999.0,60,0.00,,,-99.99,,2013-09-29 14:05:00,
2013-09-29 06:10:00,34.9,22.6,0.00,East,83,45.5,-999.0,60,0.08,,,-99.99,,2013-09-29 14:10:00,
2013-09-29 06:15:00,34.9,22.9,0.00,ENE,76,21.9,-999.0,61,0.13,,,-99.99,,2013-09-29 14:15:00,
2013-09-29 06:20:00,34.8,22.5,0.00,East,97,52.2,-999.0,60,0.03,,,-99.99,,2013-09-29 14:20:00,
2013-09-29 06:25:00,34.7,22.6,0.00,NE,56,33.2,-999.0,60,0.01,,,-99.99,,2013-09-29 14:25:00,
2013-09-29 06:30:00,35.2,22.7,0.00,East,83,47.1,-999.0,59,0.03,,,-99.99,,2013-09-29 14:30:00,
2013-09-29 06:35:00,34.5,22.5,0.00,ESE,102,31.3,-999.0,61,0.00,,,-99.99,,2013-09-29 14:35:00,
2013-09-29 06:40:00,34.6,23.1,0.00,East,81,24.5,-999.0,62,0.02,,,-99.99,,2013-09-29 14:40:00,
2013-09-29 06:45:00,34.6,22.5,0.00,ESE,105,27.2,-999.0,60,0.01,,,-99.99,,2013-09-29 14:45:00,
2013-09-29 06:50:00,34.5,22.5,0.00,ENE,59,44.9,-999.0,61,0.06,,,-99.99,,2013-09-29 14:50:00,
2013-09-29 06:55:00,34.6,22.6,0.00,East,97,41.3,-999.0,61,0.04,,,-99.99,,2013-09-29 14:55:00,
2013-09-29 07:00:00,34.7,22.1,0.00,East,101,36.8,-999.0,59,0.12,,,-99.99,,2013-09-29 15:00:00,
2013-09-29 07:05:00,34.7,22.0,0.00,ESE,111,29.5,-999.0,59,0.06,,,-99.99,,2013-09-29 15:05:00,
2013-09-29 07:10:00,35.3,21.5,0.00,East,96,33.7,-999.0,56,0.08,,,-99.99,,2013-09-29 15:10:00,
2013-09-29 07:15:00,35.6,21.6,0.00,ESE,115,25.7,-999.0,56,0.03,,,-99.99,,2013-09-29 15:15:00,
2013-09-29 07:20:00,35.5,21.5,0.00,NE,35,31.4,-999.0,56,0.08,,,-99.99,,2013-09-29 15:20:00,
2013-09-29 07:25:00,35.5,21.4,0.00,East,83,19.0,-999.0,56,0.00,,,-99.99,,2013-09-29 15:25:00,
2013-09-29 07:30:00,35.5,21.8,0.00,SE,124,19.0,-999.0,57,0.00,,,-99.99,,2013-09-29 15:30:00,
2013-09-29 07:35:00,35.3,21.4,0.00,SE,128,11.4,-999.0,56,0.00,,,-99.99,,2013-09-29 15:35:00,
2013-09-29 07:40:00,35.1,21.3,0.00,East,88,31.2,-999.0,56,0.00,,,-99.99,,2013-09-29 15:40:00,
2013-09-29 07:45:00,35.3,21.0,0.00,ENE,65,41.3,-999.0,55,0.06,,,-99.99,,2013-09-29 15:45:00,
2013-09-29 07:50:00,35.2,21.5,0.00,East,93,22.3,-999.0,57,0.05,,,-99.99,,2013-09-29 15:50:00,
2013-09-29 07:55:00,35.0,21.1,0.00,East,87,26.4,-999.0,56,0.01,,,-99.99,,2013-09-29 15:55:00,
2013-09-29 08:00:00,35.2,21.3,0.00,ESE,109,24.9,-999.0,56,0.00,,,-99.99,,2013-09-29 16:00:00,
2013-09-29 08:05:00,35.2,20.9,0.00,East,87,45.5,-999.0,55,0.19,,,-99.99,,2013-09-29 16:05:00,
2013-09-29 08:10:00,35.0,20.9,0.00,East,94,34.7,-999.0,56,0.21,,,-99.99,,2013-09-29 16:10:00,
2013-09-29 08:15:00,35.3,21.4,0.00,ENE,75,26.7,-999.0,56,0.00,,,-99.99,,2013-09-29 16:15:00,
2013-09-29 08:20:00,35.5,20.5,0.00,ESE,113,42.3,-999.0,54,0.03,,,-99.99,,2013-09-29 16:20:00,
2013-09-29 08:25:00,35.2,21.2,0.00,East,95,22.0,-999.0,56,0.00,,,-99.99,,2013-09-29 16:25:00,
2013-09-29 08:30:00,35.1,21.5,0.00,NE,36,20.9,-999.0,57,0.04,,,-99.99,,2013-09-29 16:30:00,
2013-09-29 08:35:00,35.2,21.6,0.00,ENE,57,31.0,-999.0,57,0.00,,,-99.99,,2013-09-29 16:35:00,
2013-09-29 08:40:00,35.2,20.9,0.00,East,99,33.2,-999.0,55,0.01,,,-99.99,,2013-09-29 16:40:00,
2013-09-29 08:45:00,35.2,20.9,0.00,ESE,107,17.3,-999.0,55,0.02,,,-99.99,,2013-09-29 16:45:00,
2013-09-29 08:50:00,35.3,21.6,0.00,East,83,15.8,-999.0,57,0.00,,,-99.99,,2013-09-29 16:50:00,
2013-09-29 08:55:00,35.1,21.4,0.00,ENE,77,24.6,-999.0,56,0.03,,,-99.99,,2013-09-29 16:55:00,
2013-09-29 09:00:00,35.0,21.5,0.00,East,99,22.2,-999.0,57,0.00,,,-99.99,,2013-09-29 17:00:00,
2013-09-29 09:05:00,35.3,21.2,0.00,ESE,102,35.8,-999.0,56,0.01,,,-99.99,,2013-09-29 17:05:00,
2013-09-29 09:10:00,35.3,21.1,0.00,SSE,149,18.7,-999.0,55,0.00,,,-99.99,,2013-09-29 17:10:00,
2013-09-29 09:15:00,35.5,21.8,0.00,ENE,61,13.0,-999.0,56,0.00,,,-99.99,,2013-09-29 17:15:00,
2013-09-29 09:20:00,35.4,21.9,0.00,East,100,37.3,-999.0,57,0.05,,,-99.99,,2013-09-29 17:20:00,
2013-09-29 09:25:00,35.6,21.3,0.00,East,85,30.1,-999.0,55,0.00,,,-99.99,,2013-09-29 17:25:00,
2013-09-29 09:30:00,35.2,22.0,0.00,East,93,39.4,-999.0,58,0.03,,,-99.99,,2013-09-29 17:30:00,
2013-09-29 09:35:00,35.2,21.6,0.00,ENE,76,32.0,-999.0,57,0.01,,,-99.99,,2013-09-29 17:35:00,
2013-09-29 09:40:00,35.2,20.8,0.00,East,94,46.0,-999.0,55,0.06,,,-99.99,,2013-09-29 17:40:00,
2013-09-29 09:45:00,35.2,21.1,0.00,East,95,37.3,-999.0,56,0.11,,,-99.99,,2013-09-29 17:45:00,
2013-09-29 09:50:00,35.2,21.1,0.00,ENE,77,58.6,-999.0,56,0.09,,,-99.99,,2013-09-29 17:50:00,
2013-09-29 09:55:00,35.3,22.0,0.00,ESE,107,25.4,-999.0,57,0.01,,,-99.99,,2013-09-29 17:55:00,
2013-09-29 10:00:00,35.3,21.8,0.00,SE,128,29.4,-999.0,57,0.00,,,-99.99,,2013-09-29 18:00:00,
2013-09-29 10:05:00,35.2,21.8,0.00,NE,51,24.3,-999.0,57,0.00,,,-99.99,,2013-09-29 18:05:00,
2013-09-29 10:10:00,35.1,21.5,0.00,East,80,41.5,-999.0,57,0.00,,,-99.99,,2013-09-29 18:10:00,
2013-09-29 10:15:00,35.1,22.0,0.00,ENE,78,32.2,-999.0,58,0.00,,,-99.99,,2013-09-29 18:15:00,
2013-09-29 10:20:00,35.1,22.6,0.00,East,93,21.0,-999.0,60,0.00,,,-99.99,,2013-09-29 18:20:00,
2013-09-29 10:25:00,34.8,23.5,0.00,East,85,16.2,-999.0,63,0.00,,,-99.99,,2013-09-29 18:25:00,
2013-09-29 10:30:00,34.7,23.5,0.00,SE,133,21.8,-999.0,63,0.01,,,-99.99,,2013-09-29 18:30:00,
2013-09-29 10:35:00,34.6,23.3,0.00,ENE,76,42.5,-999.0,63,0.02,,,-99.99,,2013-09-29 18:35:00,
2013-09-29 10:40:00,34.8,23.2,0.00,ESE,122,9.9,-999.0,62,0.00,,,-99.99,,2013-09-29 18:40:00,
2013-09-29 10:45:00,34.7,23.2,0.00,East,96,33.5,-999.0,62,0.00,,,-99.99,,2013-09-29 18:45:00,
2013-09-29 10:50:00,34.7,23.1,0.00,East,100,21.9,-999.0,62,0.00,,,-99.99,,2013-09-29 18:50:00,
2013-09-29 10:55:00,34.8,23.1,0.00,East,85,23.1,-999.0,61,0.00,,,-99.99,,2013-09-29 18:55:00,
2013-09-29 11:00:00,35.0,23.1,0.00,East,80,44.9,-999.0,61,0.00,,,-99.99,,2013-09-29 19:00:00,
2013-09-29 11:05:00,34.7,23.0,0.00,East,99,33.8,-999.0,61,0.00,,,-99.99,,2013-09-29 19:05:00,
2013-09-29 11:10:00,35.2,22.9,0.00,ENE,65,25.6,-999.0,60,0.00,,,-99.99,,2013-09-29 19:10:00,
2013-09-29 11:15:00,34.9,22.9,0.00,East,85,30.1,-999.0,61,0.00,,,-99.99,,2013-09-29 19:15:00,
2013-09-29 11:20:00,35.1,22.4,0.00,East,86,29.5,-999.0,59,0.00,,,-99.99,,2013-09-29 19:20:00,
2013-09-29 11:26:00,35.4,22.4,0.00,East,89,36.2,-999.0,58,0.00,,,-99.99,,2013-09-29 19:26:00,
2013-09-29 11:31:00,35.1,22.5,0.00,SE,138,19.6,-999.0,59,0.00,,,-99.99,,2013-09-29 19:31:00,
2013-09-29 11:36:00,35.3,22.8,0.00,ENE,73,29.8,-999.0,59,0.03,,,-99.99,,2013-09-29 19:36:00,
2013-09-29 11:41:00,34.9,22.5,0.00,East,86,28.6,-999.0,60,0.00,,,-99.99,,2013-09-29 19:41:00,
2013-09-29 11:46:00,35.2,22.6,0.00,SE,137,18.6,-999.0,59,0.00,,,-99.99,,2013-09-29 19:46:00,
2013-09-29 11:50:00,35.2,22.2,0.00,East,86,23.7,-999.0,58,0.00,,,-99.99,,2013-09-29 19:50:00,
2013-09-29 11:55:00,35.5,22.1,0.00,East,100,19.4,-999.0,57,0.00,,,-99.99,,2013-09-29 19:55:00,
2013-09-29 12:00:00,35.8,22.1,0.00,East,89,32.3,-999.0,57,0.00,,,-99.99,,2013-09-29 20:00:00,
2013-09-29 12:05:00,35.6,21.3,0.00,East,89,23.9,-999.0,55,0.00,,,-99.99,,2013-09-29 20:05:00,
2013-09-29 12:10:00,35.8,21.8,0.00,ESE,123,26.2,-999.0,56,0.00,,,-99.99,,2013-09-29 20:10:00,
2013-09-29 12:15:00,36.0,21.3,0.00,ENE,78,30.5,-999.0,54,0.00,,,-99.99,,2013-09-29 20:15:00,
2013-09-29 12:20:00,36.1,21.5,0.00,East,93,34.0,-999.0,54,0.00,,,-99.99,,2013-09-29 20:20:00,
2013-09-29 12:26:00,36.0,21.7,0.00,East,90,14.4,-999.0,55,0.00,,,-99.99,,2013-09-29 20:26:00,
2013-09-29 12:31:00,36.1,21.3,0.00,ENE,73,35.9,-999.0,54,0.00,,,-99.99,,2013-09-29 20:31:00,
2013-09-29 12:37:00,36.1,21.7,0.00,ESE,103,11.1,-999.0,55,0.00,,,-99.99,,2013-09-29 20:37:00,
2013-09-29 12:42:00,36.2,21.7,0.00,East,83,43.7,-999.0,55,0.04,,,-99.99,,2013-09-29 20:42:00,
2013-09-29 12:47:00,36.0,21.5,0.00,East,92,21.7,-999.0,55,0.00,,,-99.99,,2013-09-29 20:47:00,
2013-09-29 12:52:00,36.3,22.2,0.00,ESE,119,17.7,-999.0,56,0.00,,,-99.99,,2013-09-29 20:52:00,
2013-09-29 12:57:00,36.6,21.8,0.00,ESE,123,31.7,-999.0,54,0.00,,,-99.99,,2013-09-29 20:57:00,
2013-09-29 13:02:00,36.5,21.8,0.00,ENE,63,30.9,-999.0,54,0.00,,,-99.99,,2013-09-29 21:02:00,
2013-09-29 13:07:00,36.7,22.1,0.00,ESE,109,20.0,-999.0,55,0.00,,,-99.99,,2013-09-29 21:07:00,
2013-09-29 13:12:00,37.1,22.4,0.00,ESE,106,17.5,-999.0,54,0.00,,,-99.99,,2013-09-29 21:12:00,
2013-09-29 13:17:00,36.9,22.2,0.00,East,93,16.8,-999.0,54,0.00,,,-99.99,,2013-09-29 21:17:00,
2013-09-29 13:22:00,36.9,22.2,0.00,East,86,35.0,-999.0,54,0.00,,,-99.99,,2013-09-29 21:22:00,
2013-09-29 13:27:00,37.0,22.2,0.00,ENE,66,20.9,-999.0,54,0.00,,,-99.99,,2013-09-29 21:27:00,
2013-09-29 13:32:00,37.2,22.2,0.00,East,88,14.9,-999.0,54,0.00,,,-99.99,,2013-09-29 21:32:00,
2013-09-29 13:37:00,37.5,22.6,0.00,SE,133,13.0,-999.0,54,0.00,,,-99.99,,2013-09-29 21:37:00,
2013-09-29 13:42:00,37.7,22.7,0.00,ESE,106,8.6,-999.0,54,0.00,,,-99.99,,2013-09-29 21:42:00,
2013-09-29 13:47:00,37.3,22.3,0.00,ENE,57,4.9,-999.0,54,0.00,,,-99.99,,2013-09-29 21:47:00,
2013-09-29 13:52:00,37.3,22.8,0.00,NE,36,17.4,-999.0,55,0.00,,,-99.99,,2013-09-29 21:52:00,
2013-09-29 13:57:00,37.4,23.1,0.00,ENE,68,19.9,-999.0,55,0.00,,,-99.99,,2013-09-29 21:57:00,
2013-09-29 14:02:00,37.8,22.5,0.00,East,88,16.9,-999.0,53,0.00,,,-99.99,,2013-09-29 22:02:00,
2013-09-29 14:07:00,37.5,21.7,0.00,ESE,103,39.7,-999.0,52,0.00,,,-99.99,,2013-09-29 22:07:00,
2013-09-29 14:12:00,37.8,21.7,0.00,ESE,117,18.9,-999.0,51,0.00,,,-99.99,,2013-09-29 22:12:00,
2013-09-29 14:17:00,37.9,22.0,0.00,ESE,109,23.4,-999.0,52,0.00,,,-99.99,,2013-09-29 22:17:00,
2013-09-29 14:22:00,37.7,22.3,0.00,NE,48,10.2,-999.0,53,0.00,,,-99.99,,2013-09-29 22:22:00,
2013-09-29 14:27:00,37.6,23.0,0.00,NE,49,3.1,-999.0,55,0.00,,,-99.99,,2013-09-29 22:27:00,
2013-09-29 14:32:00,37.4,23.1,0.00,ENE,57,16.9,-999.0,55,0.00,,,-99.99,,2013-09-29 22:32:00,
2013-09-29 14:37:00,37.4,23.7,0.00,ENE,76,26.9,-999.0,57,0.00,,,-99.99,,2013-09-29 22:37:00,
2013-09-29 14:42:00,37.1,23.8,0.00,East,100,32.3,-999.0,58,0.03,,,-99.99,,2013-09-29 22:42:00,
2013-09-29 14:47:00,36.6,23.5,0.00,East,93,37.2,-999.0,58,0.02,,,-99.99,,2013-09-29 22:47:00,
2013-09-29 14:52:00,36.5,24.0,0.00,East,88,28.7,-999.0,60,0.00,,,-99.99,,2013-09-29 22:52:00,
2013-09-29 14:57:00,36.6,24.0,0.00,ESE,106,17.5,-999.0,59,0.00,,,-99.99,,2013-09-29 22:57:00,
2013-09-29 15:02:00,36.5,23.6,0.00,East,83,29.3,-999.0,59,0.02,,,-99.99,,2013-09-29 23:02:00,
2013-09-29 15:07:00,36.6,23.1,0.00,East,97,16.3,-999.0,57,0.00,,,-99.99,,2013-09-29 23:07:00,
2013-09-29 15:12:00,37.1,23.8,0.00,ESE,117,33.6,-999.0,58,0.04,,,-99.99,,2013-09-29 23:12:00,
2013-09-29 15:17:00,37.0,23.6,0.00,East,91,37.3,-999.0,58,0.00,,,-99.99,,2013-09-29 23:17:00,
2013-09-29 15:22:00,37.4,23.9,0.00,ENE,70,33.5,-999.0,57,0.01,,,-99.99,,2013-09-29 23:22:00,
2013-09-29 15:27:00,37.4,24.3,0.00,NE,41,3.8,-999.0,58,0.00,,,-99.99,,2013-09-29 23:27:00,
2013-09-29 15:32:00,37.2,24.3,0.00,ENE,70,14.7,-999.0,59,0.00,,,-99.99,,2013-09-29 23:32:00,
2013-09-29 15:37:00,37.7,23.5,0.00,NE,56,13.9,-999.0,56,0.00,,,-99.99,,2013-09-29 23:37:00,
2013-09-29 15:42:00,37.2,23.2,0.00,East,92,24.2,-999.0,56,0.16,,,-99.99,,2013-09-29 23:42:00,
2013-09-29 15:47:00,37.4,23.3,0.00,East,80,39.5,-999.0,56,0.00,,,-99.99,,2013-09-29 23:47:00,
2013-09-29 15:52:00,37.1,23.6,0.00,East,88,38.8,-999.0,57,0.06,,,-99.99,,2013-09-29 23:52:00,
2013-09-29 15:57:00,37.1,24.5,0.00,East,85,45.5,-999.0,59,0.01,,,-99.99,,2013-09-29 23:57:00,
2013-09-29 16:02:00,37.2,25.0,0.00,East,91,19.9,-999.0,61,0.00,,,-99.99,,2013-09-30 00:02:00,
2013-09-29 16:07:00,36.8,24.4,0.00,East,90,38.3,-999.0,60,0.04,,,-99.99,,2013-09-30 00:07:00,
2013-09-29 16:12:00,36.7,24.5,0.00,ESE,109,29.8,-999.0,60,0.00,,,-99.99,,2013-09-30 00:12:00,
2013-09-29 16:17:00,36.9,24.0,0.00,East,91,32.6,-999.0,59,0.00,,,-99.99,,2013-09-30 00:17:00,
2013-09-29 16:22:00,37.1,24.8,0.00,ENE,78,19.7,-999.0,60,0.00,,,-99.99,,2013-09-30 00:22:00,
2013-09-29 16:27:00,37.0,24.5,0.00,East,89,28.9,-999.0,60,0.00,,,-99.99,,2013-09-30 00:27:00,
2013-09-29 16:32:00,37.2,25.0,0.00,East,79,10.6,-999.0,60,0.00,,,-99.99,,2013-09-30 00:32:00,
2013-09-29 16:37:00,37.0,24.6,0.00,NE,54,13.6,-999.0,60,0.00,,,-99.99,,2013-09-30 00:37:00,
2013-09-29 16:42:00,37.2,25.1,0.00,East,87,14.1,-999.0,61,0.00,,,-99.99,,2013-09-30 00:42:00,
2013-09-29 16:47:00,37.0,24.8,0.00,SSE,148,13.4,-999.0,60,0.00,,,-99.99,,2013-09-30 00:47:00,
2013-09-29 16:52:00,37.1,24.8,0.00,East,99,18.4,-999.0,60,0.00,,,-99.99,,2013-09-30 00:52:00,
2013-09-29 16:57:00,37.2,24.5,0.00,SE,142,31.9,-999.0,59,0.00,,,-99.99,,2013-09-30 00:57:00,
2013-09-29 17:02:00,37.2,24.6,0.00,ENE,72,23.8,-999.0,59,0.00,,,-99.99,,2013-09-30 01:02:00,
2013-09-29 17:07:00,37.1,24.3,0.00,SE,131,22.5,-999.0,59,0.00,,,-99.99,,2013-09-30 01:07:00,
2013-09-29 17:12:00,37.0,24.7,0.00,WNW,287,7.8,-999.0,60,0.00,,,-99.99,,2013-09-30 01:12:00,
2013-09-29 17:17:00,37.1,24.5,0.00,NE,55,12.2,-999.0,60,0.00,,,-99.99,,2013-09-30 01:17:00,
2013-09-29 17:22:00,36.9,24.8,0.00,East,93,9.9,-999.0,61,0.00,,,-99.99,,2013-09-30 01:22:00,
2013-09-29 17:27:00,36.8,24.6,0.00,ESE,110,19.3,-999.0,60,0.00,,,-99.99,,2013-09-30 01:27:00,
2013-09-29 17:32:00,36.7,24.8,0.00,SE,127,7.8,-999.0,61,0.00,,,-99.99,,2013-09-30 01:32:00,
2013-09-29 17:37:00,36.6,24.5,0.00,ENE,74,24.1,-999.0,60,0.00,,,-99.99,,2013-09-30 01:37:00,
2013-09-29 17:42:00,36.4,24.8,0.00,ENE,77,19.5,-999.0,62,0.00,,,-99.99,,2013-09-30 01:42:00,
2013-09-29 17:47:00,36.0,24.2,0.00,NE,54,34.2,-999.0,61,0.00,,,-99.99,,2013-09-30 01:47:00,
2013-09-29 17:52:00,36.4,24.9,0.00,East,88,32.6,-999.0,62,0.02,,,-99.99,,2013-09-30 01:52:00,
2013-09-29 17:57:00,36.4,24.8,0.00,ESE,110,28.8,-999.0,62,0.00,,,-99.99,,2013-09-30 01:57:00,
2013-09-29 18:02:00,36.4,24.5,0.00,NE,43,16.2,-999.0,61,0.00,,,-99.99,,2013-09-30 02:02:00,
2013-09-29 18:07:00,36.5,24.8,0.00,SE,132,18.8,-999.0,62,0.00,,,-99.99,,2013-09-30 02:07:00,
2013-09-29 18:12:00,36.4,24.7,0.00,East,100,21.6,-999.0,62,0.00,,,-99.99,,2013-09-30 02:12:00,
2013-09-29 18:17:00,36.2,24.6,0.00,East,81,18.7,-999.0,62,0.00,,,-99.99,,2013-09-30 02:17:00,
2013-09-29 18:22:00,36.2,24.2,0.00,ENE,75,17.6,-999.0,61,0.00,,,-99.99,,2013-09-30 02:22:00,
2013-09-29 18:27:00,36.0,23.7,0.00,East,98,35.8,-999.0,60,0.06,,,-99.99,,2013-09-30 02:27:00,
2013-09-29 18:32:00,35.9,23.8,0.00,ENE,78,24.0,-999.0,60,0.16,,,-99.99,,2013-09-30 02:32:00,
2013-09-29 18:37:00,36.0,23.8,0.00,ESE,102,27.5,-999.0,60,0.04,,,-99.99,,2013-09-30 02:37:00,
2013-09-29 18:42:00,36.1,23.9,0.00,East,88,32.1,-999.0,60,0.08,,,-99.99,,2013-09-30 02:42:00,
2013-09-29 18:47:00,36.3,23.8,0.00,ENE,61,28.1,-999.0,60,0.00,,,-99.99,,2013-09-30 02:47:00,
2013-09-29 18:52:00,36.4,24.2,0.00,East,99,15.5,-999.0,60,0.08,,,-99.99,,2013-09-30 02:52:00,
2013-09-29 18:57:00,36.2,24.2,0.00,ENE,75,18.1,-999.0,61,0.00,,,-99.99,,2013-09-30 02:57:00,
2013-09-29 19:02:00,35.9,24.0,0.00,ESE,123,15.8,-999.0,61,0.00,,,-99.99,,2013-09-30 03:02:00,
2013-09-29 19:07:00,35.9,24.7,0.00,East,84,33.5,-999.0,63,0.00,,,-99.99,,2013-09-30 03:07:00,
2013-09-29 19:12:00,35.5,24.6,0.00,ENE,59,35.5,-999.0,64,0.03,,,-99.99,,2013-09-30 03:12:00,
2013-09-29 19:17:00,35.3,24.7,0.00,NE,37,19.1,-999.0,64,0.09,,,-99.99,,2013-09-30 03:17:00,
2013-09-29 19:22:00,35.4,24.7,0.00,ENE,75,24.2,-999.0,64,0.00,,,-99.99,,2013-09-30 03:22:00,
2013-09-29 19:27:00,35.2,24.7,0.00,SE,143,14.7,-999.0,65,0.00,,,-99.99,,2013-09-30 03:27:00,
2013-09-29 19:32:00,35.0,24.3,0.00,ENE,76,36.6,-999.0,64,0.05,,,-99.99,,2013-09-30 03:32:00,
2013-09-29 19:37:00,35.0,24.7,0.00,ENE,78,22.4,-999.0,65,0.00,,,-99.99,,2013-09-30 03:37:00,
2013-09-29 19:42:00,34.8,24.7,0.00,East,81,28.5,-999.0,66,0.00,,,-99.99,,2013-09-30 03:42:00,
2013-09-29 19:47:00,34.7,24.7,0.00,East,99,13.3,-999.0,66,0.00,,,-99.99,,2013-09-30 03:47:00,
2013-09-29 19:52:00,34.9,24.8,0.00,ENE,78,28.0,-999.0,66,0.00,,,-99.99,,2013-09-30 03:52:00,
2013-09-29 19:57:00,34.8,24.7,0.00,ESE,111,32.8,-999.0,66,0.03,,,-99.99,,2013-09-30 03:57:00,
2013-09-29 20:01:00,34.7,24.9,0.00,East,87,33.6,-999.0,66,0.00,,,-99.99,,2013-09-30 04:01:00,
2013-09-29 20:02:00,34.6,24.7,0.00,East,101,43.5,-999.0,66,0.00,,,-99.99,,2013-09-30 04:02:00,
2013-09-29 20:03:00,35.0,25.0,0.00,SSE,158,19.7,-999.0,66,0.00,,,-99.99,,2013-09-30 04:03:00,
2013-09-29 20:05:00,34.8,24.9,0.00,East,98,42.9,-999.0,66,0.00,,,-99.99,,2013-09-30 04:05:00,
2013-09-29 20:07:00,34.8,24.6,0.00,ENE,75,35.6,-999.0,66,0.08,,,-99.99,,2013-09-30 04:07:00,
2013-09-29 20:12:00,34.8,24.4,0.00,East,99,12.3,-999.0,65,0.11,,,-99.99,,2013-09-30 04:12:00,
2013-09-29 20:17:00,34.7,24.2,0.00,East,99,31.9,-999.0,65,0.00,,,-99.99,,2013-09-30 04:17:00,
2013-09-29 20:22:00,34.6,24.3,0.00,NE,50,6.1,-999.0,65,0.00,,,-99.99,,2013-09-30 04:22:00,
2013-09-29 20:27:00,34.6,24.5,0.00,East,81,34.2,-999.0,66,0.04,,,-99.99,,2013-09-30 04:27:00,
2013-09-29 20:32:00,34.6,24.8,0.00,East,90,21.7,-999.0,67,0.00,,,-99.99,,2013-09-30 04:32:00,
2013-09-29 20:37:00,34.5,24.9,0.00,ESE,122,26.0,-999.0,67,0.08,,,-99.99,,2013-09-30 04:37:00,
2013-09-29 20:42:00,34.4,25.1,0.00,ESE,103,18.7,-999.0,68,0.00,,,-99.99,,2013-09-30 04:42:00,
2013-09-29 20:47:00,34.5,25.2,0.00,East,101,16.2,-999.0,68,0.00,,,-99.99,,2013-09-30 04:47:00,
2013-09-29 20:52:00,34.4,25.3,0.00,ESE,105,26.5,-999.0,68,0.00,,,-99.99,,2013-09-30 04:52:00,
2013-09-29 20:57:00,34.4,25.4,0.00,ENE,74,46.9,-999.0,69,0.06,,,-99.99,,2013-09-30 04:57:00,
2013-09-29 21:02:00,34.4,25.4,0.00,ESE,112,25.7,-999.0,69,0.00,,,-99.99,,2013-09-30 05:02:00,
2013-09-29 21:08:00,34.5,25.8,0.00,East,99,20.0,-999.0,69,0.00,,,-99.99,,2013-09-30 05:08:00,
2013-09-29 21:13:00,34.7,25.8,0.00,SSW,193,13.6,-999.0,69,0.00,,,-99.99,,2013-09-30 05:13:00,
2013-09-29 21:18:00,34.5,25.7,0.00,East,93,12.8,-999.0,69,0.00,,,-99.99,,2013-09-30 05:18:00,
2013-09-29 21:23:00,34.4,25.5,0.00,NE,35,13.9,-999.0,69,0.00,,,-99.99,,2013-09-30 05:23:00,
2013-09-29 21:28:00,34.6,25.3,0.00,SE,124,13.3,-999.0,68,0.00,,,-99.99,,2013-09-30 05:28:00,
2013-09-29 21:33:00,34.5,25.2,0.00,East,94,23.0,-999.0,68,0.00,,,-99.99,,2013-09-30 05:33:00,
2013-09-29 21:38:00,34.6,25.0,0.00,ENE,74,41.7,-999.0,67,0.00,,,-99.99,,2013-09-30 05:38:00,
2013-09-29 21:43:00,34.5,24.9,0.00,East,80,25.4,-999.0,67,0.00,,,-99.99,,2013-09-30 05:43:00,
2013-09-29 21:48:00,34.7,24.9,0.00,ENE,69,32.1,-999.0,67,0.00,,,-99.99,,2013-09-30 05:48:00,
2013-09-29 21:53:00,34.6,24.8,0.00,East,79,25.0,-999.0,66,0.00,,,-99.99,,2013-09-30 05:53:00,
2013-09-29 21:58:00,34.7,24.9,0.00,ENE,61,39.2,-999.0,67,0.00,,,-99.99,,2013-09-30 05:58:00,
2013-09-29 22:03:00,34.8,25.1,0.00,ENE,76,13.1,-999.0,67,0.00,,,-99.99,,2013-09-30 06:03:00,
2013-09-29 22:08:00,34.7,25.0,0.00,ENE,75,19.8,-999.0,67,0.00,,,-99.99,,2013-09-30 06:08:00,
2013-09-29 22:13:00,34.7,24.9,0.00,East,81,20.0,-999.0,67,0.00,,,-99.99,,2013-09-30 06:13:00,
2013-09-29 22:18:00,34.9,25.3,0.00,NE,45,10.5,-999.0,67,0.00,,,-99.99,,2013-09-30 06:18:00,
2013-09-29 22:23:00,34.9,25.2,0.00,East,88,29.4,-999.0,67,0.00,,,-99.99,,2013-09-30 06:23:00,
2013-09-29 22:28:00,34.9,25.2,0.00,NE,48,28.3,-999.0,67,0.00,,,-99.99,,2013-09-30 06:28:00,
2013-09-29 22:33:00,34.4,25.4,0.00,ENE,61,26.3,-999.0,69,0.00,,,-99.99,,2013-09-30 06:33:00,
2013-09-29 22:38:00,34.7,25.5,0.00,East,80,22.9,-999.0,68,0.00,,,-99.99,,2013-09-30 06:38:00,
2013-09-29 22:43:00,34.8,25.6,0.00,East,97,13.6,-999.0,68,0.00,,,-99.99,,2013-09-30 06:43:00,
2013-09-29 22:48:00,34.8,25.8,0.00,East,83,16.4,-999.0,69,0.00,,,-99.99,,2013-09-30 06:48:00,
2013-09-29 22:53:00,34.9,25.8,0.00,ENE,65,29.2,-999.0,69,0.00,,,-99.99,,2013-09-30 06:53:00,
2013-09-29 22:58:00,34.8,25.9,0.00,ENE,78,24.4,-999.0,69,0.00,,,-99.99,,2013-09-30 06:58:00,
2013-09-29 23:03:00,34.9,25.8,0.00,East,93,17.7,-999.0,69,0.00,,,-99.99,,2013-09-30 07:03:00,
2013-09-29 23:08:00,35.1,25.7,0.00,East,84,31.2,-999.0,68,0.00,,,-99.99,,2013-09-30 07:08:00,
2013-09-29 23:13:00,35.4,25.8,0.00,ENE,77,12.3,-999.0,67,0.00,,,-99.99,,2013-09-30 07:13:00,
2013-09-29 23:18:00,35.3,25.8,0.00,ESE,122,15.9,-999.0,67,0.00,,,-99.99,,2013-09-30 07:18:00,
2013-09-29 23:23:00,35.7,25.8,0.00,SE,132,9.0,-999.0,66,0.00,,,-99.99,,2013-09-30 07:23:00,
2013-09-29 23:28:00,35.4,25.7,0.00,ESE,105,8.9,-999.0,67,0.00,,,-99.99,,2013-09-30 07:28:00,
2013-09-29 23:33:00,35.1,25.6,0.00,East,95,34.2,-999.0,67,0.03,,,-99.99,,2013-09-30 07:33:00,
2013-09-29 23:38:00,35.5,25.7,0.00,SE,125,10.5,-999.0,67,0.00,,,-99.99,,2013-09-30 07:38:00,
2013-09-29 23:43:00,35.7,25.6,0.00,ENE,76,23.3,-999.0,66,0.00,,,-99.99,,2013-09-30 07:43:00,
2013-09-29 23:48:00,35.8,25.4,0.00,ENE,78,28.4,-999.0,65,0.00,,,-99.99,,2013-09-30 07:48:00,
2013-09-29 23:53:00,36.3,25.5,0.00,NE,54,20.9,-999.0,64,0.00,,,-99.99,,2013-09-30 07:53:00,
2013-09-29 23:58:00,36.4,25.5,0.00,ENE,67,16.0,-999.0,64,0.00,,,-99.99,,2013-09-30 07:58:00,